createdAt,value
2023-02-11T00:00:34.405Z,102235.75
2023-02-11T00:01:37.317Z,102234.94
2023-02-11T00:02:39.573Z,102233.00
2023-02-11T00:03:42.020Z,102233.84
2023-02-11T00:04:44.255Z,102233.59
2023-02-11T00:05:46.766Z,102230.03
2023-02-11T00:06:48.930Z,102217.81
2023-02-11T00:07:51.290Z,102223.00
2023-02-11T00:08:54.252Z,102222.97
2023-02-11T00:09:56.769Z,102220.47
2023-02-11T00:10:59.163Z,102217.00
2023-02-11T00:12:01.370Z,102219.78
2023-02-11T00:13:03.576Z,102211.81
2023-02-11T00:14:08.392Z,102216.16
2023-02-11T00:15:11.500Z,102204.63
2023-02-11T00:16:16.525Z,102215.38
2023-02-11T00:17:18.716Z,102209.22
2023-02-11T00:18:20.943Z,102204.78
2023-02-11T00:19:23.151Z,102203.88
2023-02-11T00:20:25.326Z,102196.63
2023-02-11T00:21:27.936Z,102195.69
2023-02-11T00:22:31.893Z,102191.13
2023-02-11T00:23:34.480Z,102193.84
2023-02-11T00:24:37.088Z,102190.31
2023-02-11T00:25:44.816Z,102185.25
2023-02-11T00:26:47.215Z,102191.47
2023-02-11T00:27:49.400Z,102182.56
2023-02-11T00:28:52.738Z,102174.63
2023-02-11T00:29:55.028Z,102185.31
2023-02-11T00:30:58.324Z,102172.16
2023-02-11T00:32:05.225Z,102174.72
2023-02-11T00:33:07.561Z,102174.84
2023-02-11T00:34:09.768Z,102165.88
2023-02-11T00:35:12.069Z,102163.25
2023-02-11T00:36:20.739Z,102161.53
2023-02-11T00:37:22.922Z,102154.47
2023-02-11T00:38:25.279Z,102165.97
2023-02-11T00:39:27.580Z,102164.09
2023-02-11T00:40:29.797Z,102165.75
2023-02-11T00:41:32.659Z,102160.47
2023-02-11T00:42:35.715Z,102158.78
2023-02-11T00:43:38.098Z,102170.22
2023-02-11T00:44:40.448Z,102166.53
2023-02-11T00:45:42.665Z,102168.47
2023-02-11T00:46:44.920Z,102159.72
2023-02-11T00:47:47.198Z,102164.16
2023-02-11T00:48:51.653Z,102159.72
2023-02-11T00:49:57.221Z,102161.47
2023-02-11T00:50:59.491Z,102159.75
2023-02-11T00:52:01.706Z,102167.63
2023-02-11T00:53:03.950Z,102163.16
2023-02-11T00:54:06.368Z,102160.47
2023-02-11T00:55:09.169Z,102166.75
2023-02-11T00:56:11.411Z,102165.09
2023-02-11T00:57:13.601Z,102175.84
2023-02-11T00:58:15.767Z,102174.03
2023-02-11T00:59:17.938Z,102182.09
2023-02-11T01:00:20.696Z,102174.13
2023-02-11T01:01:23.261Z,102175.13
2023-02-11T01:02:25.589Z,102177.81
2023-02-11T01:03:27.859Z,102178.56
2023-02-11T01:04:30.980Z,102187.44
2023-02-11T01:05:33.475Z,102175.97
2023-02-11T01:06:35.665Z,102180.28
2023-02-11T01:07:38.067Z,102167.91
2023-02-11T01:08:40.439Z,102166.00
2023-02-11T01:09:43.921Z,102165.84
2023-02-11T01:10:53.200Z,102164.09
2023-02-11T01:11:55.400Z,102156.38
2023-02-11T01:12:57.616Z,102159.81
2023-02-11T01:14:01.428Z,102155.56
2023-02-11T01:15:05.380Z,102157.31
2023-02-11T01:16:10.073Z,102161.88
2023-02-11T01:17:12.470Z,102166.25
2023-02-11T01:18:14.803Z,102168.09
2023-02-11T01:19:17.164Z,102166.50
2023-02-11T01:20:24.738Z,102159.28
2023-02-11T01:21:26.951Z,102163.72
2023-02-11T01:22:29.130Z,102157.41
2023-02-11T01:23:31.446Z,102148.66
2023-02-11T01:24:33.809Z,102149.47
2023-02-11T01:25:36.335Z,102151.44
2023-02-11T01:26:39.395Z,102146.91
2023-02-11T01:27:41.798Z,102138.09
2023-02-11T01:28:44.404Z,102134.47
2023-02-11T01:29:46.840Z,102128.31
2023-02-11T01:30:49.661Z,102131.75
2023-02-11T01:31:52.477Z,102129.28
2023-02-11T01:32:54.909Z,102131.13
2023-02-11T01:33:57.106Z,102123.25
2023-02-11T01:34:59.829Z,102124.22
2023-02-11T01:36:04.249Z,102118.97
2023-02-11T01:37:07.267Z,102125.91
2023-02-11T01:38:16.602Z,102114.38
2023-02-11T01:39:18.797Z,102112.72
2023-02-11T01:40:22.092Z,102108.41
2023-02-11T01:41:24.510Z,102109.38
2023-02-11T01:42:26.716Z,102115.66
2023-02-11T01:43:32.709Z,102107.78
2023-02-11T01:44:38.184Z,102122.78
2023-02-11T01:45:47.245Z,102125.31
2023-02-11T01:46:49.519Z,102118.22
2023-02-11T01:47:54.653Z,102114.66
2023-02-11T01:49:08.936Z,102119.13
2023-02-11T01:50:11.393Z,102121.88
2023-02-11T01:51:18.691Z,102123.69
2023-02-11T01:52:31.582Z,102132.47
2023-02-11T01:53:54.435Z,102134.19
2023-02-11T01:55:19.375Z,102139.59
2023-02-11T01:56:43.039Z,102133.44
2023-02-11T01:57:51.275Z,102134.28
2023-02-11T01:58:59.453Z,102130.88
2023-02-11T02:00:25.640Z,102124.75
2023-02-11T02:01:31.990Z,102131.75
2023-02-11T02:02:49.366Z,102123.75
2023-02-11T02:04:00.104Z,102125.63
2023-02-11T02:05:29.752Z,102115.03
2023-02-11T02:06:37.681Z,102116.66
2023-02-11T02:07:56.687Z,102117.53
2023-02-11T02:09:17.144Z,102109.50
2023-02-11T02:10:22.678Z,102113.00
2023-02-11T02:11:26.305Z,102098.19
2023-02-11T02:12:28.679Z,102098.28
2023-02-11T02:13:32.869Z,102096.53
2023-02-11T02:14:39.416Z,102086.69
2023-02-11T02:15:49.780Z,102089.38
2023-02-11T02:16:52.229Z,102084.13
2023-02-11T02:18:18.002Z,102079.75
2023-02-11T02:19:45.924Z,102080.75
2023-02-11T02:21:07.744Z,102075.38
2023-02-11T02:22:14.282Z,102069.25
2023-02-11T02:23:54.060Z,102064.78
2023-02-11T02:25:31.207Z,102057.59
2023-02-11T02:27:08.477Z,102063.88
2023-02-11T02:28:35.970Z,102060.31
2023-02-11T02:29:55.984Z,102060.31
2023-02-11T02:31:11.470Z,102053.44
2023-02-11T02:32:35.256Z,102049.06
2023-02-11T02:34:00.604Z,102052.56
2023-02-11T02:35:22.926Z,102049.88
2023-02-11T02:36:55.823Z,102048.94
2023-02-11T02:38:08.590Z,102035.59
2023-02-11T02:39:33.735Z,102036.47
2023-02-11T02:40:51.000Z,102032.16
2023-02-11T02:41:55.289Z,102025.13
2023-02-11T02:42:59.694Z,102026.94
2023-02-11T02:44:02.467Z,102026.91
2023-02-11T02:45:05.162Z,102012.75
2023-02-11T02:46:30.242Z,102007.44
2023-02-11T02:47:32.480Z,101998.56
2023-02-11T02:48:38.829Z,102003.75
2023-02-11T02:49:41.123Z,102003.00
2023-02-11T02:50:43.949Z,102017.03
2023-02-11T02:52:15.710Z,102003.88
2023-02-11T02:53:21.920Z,102012.78
2023-02-11T02:55:01.777Z,102016.47
2023-02-11T02:56:18.573Z,102007.59
2023-02-11T02:57:38.892Z,102013.00
2023-02-11T02:58:47.390Z,102012.97
2023-02-11T03:00:14.368Z,102014.72
2023-02-11T03:01:35.753Z,102012.88
2023-02-11T03:03:15.185Z,102011.72
2023-02-11T03:04:47.702Z,102025.63
2023-02-11T03:06:08.879Z,102022.09
2023-02-11T03:07:55.373Z,102028.25
2023-02-11T03:09:06.069Z,102032.72
2023-02-11T03:10:13.790Z,102041.66
2023-02-11T03:11:19.090Z,102038.16
2023-02-11T03:12:23.073Z,102043.53
2023-02-11T03:13:32.189Z,102048.88
2023-02-11T03:14:36.188Z,102035.66
2023-02-11T03:15:43.713Z,102033.00
2023-02-11T03:16:48.452Z,102046.16
2023-02-11T03:17:55.473Z,102036.47
2023-02-11T03:19:06.296Z,102036.47
2023-02-11T03:20:11.911Z,102041.75
2023-02-11T03:21:16.519Z,102032.09
2023-02-11T03:22:35.158Z,102018.84
2023-02-11T03:23:47.316Z,102023.34
2023-02-11T03:24:49.873Z,102026.97
2023-02-11T03:25:57.826Z,102020.88
2023-02-11T03:27:24.347Z,102020.94
2023-02-11T03:28:34.340Z,102013.00
2023-02-11T03:29:42.515Z,102017.31
2023-02-11T03:31:08.951Z,102018.13
2023-02-11T03:32:19.513Z,102008.41
2023-02-11T03:33:35.119Z,102005.78
2023-02-11T03:34:55.557Z,102009.31
2023-02-11T03:36:03.464Z,102009.31
2023-02-11T03:37:39.801Z,102013.75
2023-02-11T03:38:52.013Z,102013.84
2023-02-11T03:40:00.143Z,102014.75
2023-02-11T03:41:06.898Z,102002.44
2023-02-11T03:42:12.159Z,101999.00
2023-02-11T03:43:26.105Z,101997.19
2023-02-11T03:44:34.768Z,101996.28
2023-02-11T03:45:39.271Z,101991.84
2023-02-11T03:46:47.914Z,101994.47
2023-02-11T03:48:14.584Z,102006.09
2023-02-11T03:49:21.700Z,102000.81
2023-02-11T03:50:26.514Z,101985.00
2023-02-11T03:51:30.994Z,101983.25
2023-02-11T03:52:35.271Z,101979.66
2023-02-11T03:53:40.810Z,101982.25
2023-02-11T03:54:46.472Z,101984.06
2023-02-11T03:55:51.405Z,101985.00
2023-02-11T03:56:57.168Z,101977.94
2023-02-11T03:57:59.378Z,101992.97
2023-02-11T03:59:01.710Z,101982.34
2023-02-11T04:00:05.355Z,101984.09
2023-02-11T04:01:13.947Z,101980.59
2023-02-11T04:02:16.233Z,101989.44
2023-02-11T04:03:19.166Z,101987.59
2023-02-11T04:04:21.454Z,101985.84
2023-02-11T04:05:23.810Z,101976.97
2023-02-11T04:06:26.314Z,101985.91
2023-02-11T04:07:28.872Z,101986.75
2023-02-11T04:08:31.976Z,101991.19
2023-02-11T04:09:35.335Z,101982.34
2023-02-11T04:10:37.806Z,101972.59
2023-02-11T04:11:40.179Z,101981.38
2023-02-11T04:12:42.444Z,101972.50
2023-02-11T04:13:44.795Z,101976.09
2023-02-11T04:14:47.091Z,101971.69
2023-02-11T04:15:49.340Z,101968.25
2023-02-11T04:16:51.905Z,101970.03
2023-02-11T04:17:54.077Z,101981.56
2023-02-11T04:18:57.176Z,101978.97
2023-02-11T04:19:59.384Z,101975.47
2023-02-11T04:21:01.702Z,101975.53
2023-02-11T04:22:04.349Z,101970.19
2023-02-11T04:23:06.706Z,101972.81
2023-02-11T04:24:08.889Z,101978.22
2023-02-11T04:25:11.313Z,101970.25
2023-02-11T04:26:13.692Z,101976.47
2023-02-11T04:27:16.154Z,101969.41
2023-02-11T04:28:18.434Z,101977.25
2023-02-11T04:29:20.897Z,101973.75
2023-02-11T04:30:23.111Z,101972.94
2023-02-11T04:31:25.693Z,101970.25
2023-02-11T04:32:28.261Z,101975.47
2023-02-11T04:33:30.510Z,101964.00
2023-02-11T04:34:32.869Z,101967.53
2023-02-11T04:35:35.253Z,101964.81
2023-02-11T04:36:37.659Z,101964.78
2023-02-11T04:37:39.907Z,101959.47
2023-02-11T04:38:42.091Z,101975.50
2023-02-11T04:39:44.282Z,101965.78
2023-02-11T04:40:46.653Z,101963.13
2023-02-11T04:41:49.079Z,101974.66
2023-02-11T04:42:51.284Z,101969.34
2023-02-11T04:43:53.697Z,101967.56
2023-02-11T04:44:55.943Z,101970.22
2023-02-11T04:45:58.908Z,101957.78
2023-02-11T04:47:01.649Z,101963.97
2023-02-11T04:48:04.335Z,101967.53
2023-02-11T04:49:06.704Z,101956.06
2023-02-11T04:50:09.111Z,101956.97
2023-02-11T04:51:11.709Z,101961.38
2023-02-11T04:52:14.551Z,101952.53
2023-02-11T04:53:16.715Z,101959.59
2023-02-11T04:54:20.011Z,101962.25
2023-02-11T04:55:22.269Z,101955.16
2023-02-11T04:56:24.498Z,101969.38
2023-02-11T04:57:27.060Z,101964.94
2023-02-11T04:58:29.423Z,101967.53
2023-02-11T04:59:31.891Z,101965.78
2023-02-11T05:00:34.061Z,101963.13
2023-02-11T05:01:36.324Z,101958.66
2023-02-11T05:02:38.991Z,101959.59
2023-02-11T05:03:42.446Z,101963.16
2023-02-11T05:04:44.681Z,101956.94
2023-02-11T05:05:47.155Z,101959.59
2023-02-11T05:06:50.644Z,101962.25
2023-02-11T05:07:53.206Z,101958.72
2023-02-11T05:08:55.395Z,101952.53
2023-02-11T05:09:57.602Z,101953.41
2023-02-11T05:11:02.106Z,101950.78
2023-02-11T05:12:05.003Z,101942.81
2023-02-11T05:13:07.358Z,101940.09
2023-02-11T05:14:09.564Z,101947.13
2023-02-11T05:15:11.748Z,101952.44
2023-02-11T05:16:14.869Z,101943.59
2023-02-11T05:17:17.139Z,101939.19
2023-02-11T05:18:19.514Z,101950.75
2023-02-11T05:19:21.819Z,101943.69
2023-02-11T05:20:24.026Z,101943.72
2023-02-11T05:21:26.412Z,101945.47
2023-02-11T05:22:28.807Z,101941.06
2023-02-11T05:23:30.978Z,101934.88
2023-02-11T05:24:33.819Z,101941.06
2023-02-11T05:25:36.119Z,101941.03
2023-02-11T05:26:38.323Z,101938.38
2023-02-11T05:27:40.921Z,101941.06
2023-02-11T05:28:43.984Z,101946.38
2023-02-11T05:29:46.369Z,101942.78
2023-02-11T05:30:48.613Z,101950.78
2023-02-11T05:31:50.803Z,101948.97
2023-02-11T05:32:53.392Z,101953.44
2023-02-11T05:33:55.647Z,101943.66
2023-02-11T05:34:58.083Z,101947.22
2023-02-11T05:36:01.976Z,101943.72
2023-02-11T05:37:04.233Z,101936.63
2023-02-11T05:38:06.874Z,101942.88
2023-02-11T05:39:09.040Z,101935.81
2023-02-11T05:40:11.728Z,101942.88
2023-02-11T05:41:14.211Z,101932.28
2023-02-11T05:42:16.382Z,101934.00
2023-02-11T05:43:19.021Z,101932.19
2023-02-11T05:44:21.249Z,101935.75
2023-02-11T05:45:23.416Z,101936.72
2023-02-11T05:46:25.851Z,101936.75
2023-02-11T05:47:28.236Z,101942.94
2023-02-11T05:48:31.217Z,101927.94
2023-02-11T05:49:33.430Z,101936.72
2023-02-11T05:50:35.747Z,101929.63
2023-02-11T05:51:39.944Z,101929.66
2023-02-11T05:52:42.128Z,101919.00
2023-02-11T05:53:44.714Z,101922.47
2023-02-11T05:54:47.082Z,101923.44
2023-02-11T05:55:49.560Z,101908.38
2023-02-11T05:56:52.241Z,101909.28
2023-02-11T05:57:54.452Z,101909.34
2023-02-11T05:58:59.354Z,101919.97
2023-02-11T06:00:01.937Z,101918.19
2023-02-11T06:01:14.522Z,101917.28
2023-02-11T06:02:16.984Z,101918.22
2023-02-11T06:03:19.459Z,101927.94
2023-02-11T06:04:21.953Z,101923.50
2023-02-11T06:05:24.360Z,101920.94
2023-02-11T06:06:26.778Z,101917.44
2023-02-11T06:07:28.965Z,101913.00
2023-02-11T06:08:31.528Z,101912.13
2023-02-11T06:09:33.756Z,101910.28
2023-02-11T06:10:36.637Z,101908.47
2023-02-11T06:11:38.817Z,101911.09
2023-02-11T06:12:41.017Z,101899.63
2023-02-11T06:13:43.782Z,101901.38
2023-02-11T06:14:46.016Z,101900.53
2023-02-11T06:16:02.377Z,101896.09
2023-02-11T06:17:04.655Z,101898.81
2023-02-11T06:18:08.016Z,101893.47
2023-02-11T06:19:11.012Z,101889.06
2023-02-11T06:20:13.488Z,101897.94
2023-02-11T06:21:15.921Z,101890.00
2023-02-11T06:22:18.119Z,101892.66
2023-02-11T06:23:20.374Z,101887.31
2023-02-11T06:24:44.290Z,101894.34
2023-02-11T06:25:45.823Z,101887.25
2023-02-11T06:26:48.202Z,101888.16
2023-02-11T06:27:50.370Z,101890.78
2023-02-11T06:28:52.772Z,101887.28
2023-02-11T06:29:55.070Z,101896.97
2023-02-11T06:30:58.185Z,101898.75
2023-02-11T06:32:00.725Z,101895.22
2023-02-11T06:33:03.340Z,101889.91
2023-02-11T06:34:06.024Z,101897.88
2023-02-11T06:35:10.743Z,101894.44
2023-02-11T06:36:19.689Z,101897.06
2023-02-11T06:37:21.956Z,101892.66
2023-02-11T06:38:24.342Z,101898.88
2023-02-11T06:39:26.534Z,101905.03
2023-02-11T06:40:28.838Z,101905.00
2023-02-11T06:41:31.337Z,101899.66
2023-02-11T06:42:34.580Z,101905.88
2023-02-11T06:43:37.179Z,101907.66
2023-02-11T06:44:39.578Z,101903.22
2023-02-11T06:45:41.763Z,101903.25
2023-02-11T06:46:44.016Z,101900.66
2023-02-11T06:47:46.207Z,101912.13
2023-02-11T06:48:48.958Z,101901.50
2023-02-11T06:49:51.313Z,101911.25
2023-02-11T06:50:53.517Z,101909.47
2023-02-11T06:51:55.940Z,101910.31
2023-02-11T06:52:59.874Z,101911.16
2023-02-11T06:54:02.402Z,101916.47
2023-02-11T06:55:05.384Z,101909.41
2023-02-11T06:56:10.783Z,101912.09
2023-02-11T06:57:13.147Z,101921.84
2023-02-11T06:58:15.528Z,101917.47
2023-02-11T06:59:20.724Z,101916.59
2023-02-11T07:00:23.256Z,101930.78
2023-02-11T07:01:27.458Z,101924.53
2023-02-11T07:02:30.059Z,101914.78
2023-02-11T07:03:36.621Z,101924.47
2023-02-11T07:04:39.174Z,101915.59
2023-02-11T07:05:44.548Z,101913.88
2023-02-11T07:06:46.758Z,101910.34
2023-02-11T07:07:49.224Z,101914.72
2023-02-11T07:08:51.434Z,101920.00
2023-02-11T07:09:54.077Z,101912.03
2023-02-11T07:10:56.302Z,101927.09
2023-02-11T07:11:58.499Z,101922.66
2023-02-11T07:13:00.960Z,101927.97
2023-02-11T07:14:10.674Z,101928.84
2023-02-11T07:15:12.884Z,101941.16
2023-02-11T07:16:17.100Z,101936.81
2023-02-11T07:17:19.342Z,101945.59
2023-02-11T07:18:21.730Z,101942.03
2023-02-11T07:19:24.046Z,101937.59
2023-02-11T07:20:26.701Z,101937.56
2023-02-11T07:21:29.031Z,101950.81
2023-02-11T07:22:31.275Z,101939.31
2023-02-11T07:23:34.302Z,101937.59
2023-02-11T07:24:36.688Z,101938.50
2023-02-11T07:25:39.058Z,101937.63
2023-02-11T07:26:41.352Z,101942.91
2023-02-11T07:27:43.635Z,101944.69
2023-02-11T07:28:46.106Z,101938.53
2023-02-11T07:29:48.728Z,101936.78
2023-02-11T07:30:51.116Z,101941.19
2023-02-11T07:31:53.382Z,101941.19
2023-02-11T07:32:56.702Z,101940.34
2023-02-11T07:34:01.376Z,101934.19
2023-02-11T07:35:04.301Z,101924.44
2023-02-11T07:36:08.746Z,101936.81
2023-02-11T07:37:11.029Z,101936.81
2023-02-11T07:38:13.215Z,101929.78
2023-02-11T07:39:15.579Z,101922.69
2023-02-11T07:40:18.026Z,101923.56
2023-02-11T07:41:22.684Z,101917.41
2023-02-11T07:42:24.876Z,101920.03
2023-02-11T07:43:27.847Z,101920.09
2023-02-11T07:44:30.067Z,101919.19
2023-02-11T07:45:32.607Z,101914.84
2023-02-11T07:46:35.843Z,101910.41
2023-02-11T07:47:38.891Z,101915.69
2023-02-11T07:48:41.286Z,101908.66
2023-02-11T07:49:43.554Z,101908.69
2023-02-11T07:50:45.960Z,101912.22
2023-02-11T07:51:49.224Z,101903.34
2023-02-11T07:52:51.409Z,101901.56
2023-02-11T07:53:55.453Z,101905.13
2023-02-11T07:54:57.622Z,101902.47
2023-02-11T07:55:59.836Z,101905.13
2023-02-11T07:57:02.070Z,101896.22
2023-02-11T07:58:04.330Z,101894.50
2023-02-11T07:59:06.491Z,101886.53
2023-02-11T08:00:09.473Z,101890.97
2023-02-11T08:01:19.496Z,101896.28
2023-02-11T08:02:21.811Z,101898.03
2023-02-11T08:03:23.999Z,101894.56
2023-02-11T08:04:26.390Z,101896.34
2023-02-11T08:05:30.408Z,101889.25
2023-02-11T08:06:34.420Z,101894.56
2023-02-11T08:07:36.794Z,101891.94
2023-02-11T08:08:39.675Z,101889.22
2023-02-11T08:09:41.965Z,101891.00
2023-02-11T08:10:44.179Z,101880.41
2023-02-11T08:11:46.582Z,101884.84
2023-02-11T08:12:48.787Z,101880.44
2023-02-11T08:13:51.860Z,101881.31
2023-02-11T08:14:54.068Z,101878.69
2023-02-11T08:15:57.833Z,101879.56
2023-02-11T08:17:00.074Z,101876.88
2023-02-11T08:18:02.293Z,101867.13
2023-02-11T08:19:12.481Z,101879.50
2023-02-11T08:20:14.678Z,101881.31
2023-02-11T08:21:17.248Z,101883.94
2023-02-11T08:22:19.739Z,101880.44
2023-02-11T08:23:22.299Z,101896.38
2023-02-11T08:24:24.498Z,101891.97
2023-02-11T08:25:26.900Z,101893.75
2023-02-11T08:26:32.066Z,101896.38
2023-02-11T08:27:34.525Z,101891.94
2023-02-11T08:28:41.530Z,101897.25
2023-02-11T08:29:43.911Z,101897.25
2023-02-11T08:30:46.132Z,101909.66
2023-02-11T08:31:49.073Z,101908.75
2023-02-11T08:32:51.441Z,101904.31
2023-02-11T08:33:54.949Z,101908.66
2023-02-11T08:34:57.351Z,101913.09
2023-02-11T08:36:00.113Z,101905.16
2023-02-11T08:37:02.481Z,101912.28
2023-02-11T08:38:04.688Z,101899.00
2023-02-11T08:39:19.186Z,101904.34
2023-02-11T08:40:22.094Z,101902.56
2023-02-11T08:41:24.267Z,101902.56
2023-02-11T08:42:26.450Z,101899.03
2023-02-11T08:43:29.066Z,101910.56
2023-02-11T08:44:31.280Z,101910.53
2023-02-11T08:45:33.734Z,101892.81
2023-02-11T08:46:36.254Z,101901.69
2023-02-11T08:47:39.868Z,101884.00
2023-02-11T08:48:42.829Z,101896.38
2023-02-11T08:49:45.135Z,101901.69
2023-02-11T08:50:47.362Z,101900.81
2023-02-11T08:51:50.328Z,101886.63
2023-02-11T08:52:52.929Z,101896.38
2023-02-11T08:53:55.984Z,101894.63
2023-02-11T08:54:58.851Z,101897.25
2023-02-11T08:56:01.323Z,101904.34
2023-02-11T08:57:04.389Z,101911.44
2023-02-11T08:58:06.825Z,101907.03
2023-02-11T08:59:12.648Z,101912.34
2023-02-11T09:00:17.116Z,101915.88
2023-02-11T09:01:23.361Z,101920.31
2023-02-11T09:02:26.242Z,101929.16
2023-02-11T09:03:29.718Z,101923.84
2023-02-11T09:04:31.994Z,101926.50
2023-02-11T09:05:34.332Z,101925.63
2023-02-11T09:06:36.591Z,101930.94
2023-02-11T09:07:39.385Z,101918.53
2023-02-11T09:08:46.435Z,101913.22
2023-02-11T09:09:48.803Z,101921.19
2023-02-11T09:10:51.598Z,101914.97
2023-02-11T09:11:57.239Z,101925.59
2023-02-11T09:12:59.878Z,101926.50
2023-02-11T09:14:04.575Z,101938.91
2023-02-11T09:15:07.242Z,101927.41
2023-02-11T09:16:17.511Z,101923.88
2023-02-11T09:17:19.785Z,101914.13
2023-02-11T09:18:22.636Z,101915.91
2023-02-11T09:19:24.919Z,101910.59
2023-02-11T09:20:27.758Z,101899.97
2023-02-11T09:21:30.928Z,101890.19
2023-02-11T09:22:33.216Z,101890.22
2023-02-11T09:23:36.401Z,101882.25
2023-02-11T09:24:38.740Z,101895.53
2023-02-11T09:25:41.368Z,101891.97
2023-02-11T09:26:43.893Z,101894.66
2023-02-11T09:27:46.360Z,101915.03
2023-02-11T09:28:49.227Z,101899.06
2023-02-11T09:29:51.774Z,101896.41
2023-02-11T09:30:54.634Z,101884.88
2023-02-11T09:31:57.700Z,101875.97
2023-02-11T09:33:00.305Z,101877.75
2023-02-11T09:34:06.124Z,101866.16
2023-02-11T09:35:08.487Z,101872.41
2023-02-11T09:36:10.677Z,101865.28
2023-02-11T09:37:12.941Z,101866.16
2023-02-11T09:38:15.576Z,101869.69
2023-02-11T09:39:20.497Z,101867.88
2023-02-11T09:40:23.331Z,101864.34
2023-02-11T09:41:25.487Z,101870.53
2023-02-11T09:43:07.037Z,101863.41
2023-02-11T09:44:18.827Z,101854.53
2023-02-11T09:45:25.703Z,101850.09
2023-02-11T09:46:35.803Z,101846.56
2023-02-11T09:47:50.920Z,101844.81
2023-02-11T09:48:55.766Z,101854.56
2023-02-11T09:50:06.715Z,101850.19
2023-02-11T09:51:20.822Z,101865.28
2023-02-11T09:52:58.451Z,101867.06
2023-02-11T09:54:25.879Z,101883.06
2023-02-11T09:55:42.777Z,101889.25
2023-02-11T09:56:45.246Z,101878.59
2023-02-11T09:57:47.738Z,101879.47
2023-02-11T09:58:50.140Z,101878.59
2023-02-11T09:59:52.406Z,101888.38
2023-02-11T10:01:26.644Z,101897.25
2023-02-11T10:02:45.133Z,101894.59
2023-02-11T10:04:02.943Z,101907.03
2023-02-11T10:05:27.003Z,101899.06
2023-02-11T10:07:07.646Z,101897.28
2023-02-11T10:08:28.179Z,101902.59
2023-02-11T10:09:45.443Z,101899.94
2023-02-11T10:10:58.465Z,101907.91
2023-02-11T10:12:38.300Z,101908.78
2023-02-11T10:13:54.281Z,101908.78
2023-02-11T10:15:27.507Z,101899.94
2023-02-11T10:16:55.727Z,101902.59
2023-02-11T10:18:45.632Z,101897.25
2023-02-11T10:20:30.004Z,101915.91
2023-02-11T10:22:03.736Z,101919.47
2023-02-11T10:23:29.557Z,101907.00
2023-02-11T10:24:33.429Z,101894.59
2023-02-11T10:25:47.503Z,101897.25
2023-02-11T10:26:52.090Z,101895.44
2023-02-11T10:27:58.058Z,101899.88
2023-02-11T10:29:06.988Z,101905.19
2023-02-11T10:30:36.333Z,101906.06
2023-02-11T10:31:43.367Z,101914.94
2023-02-11T10:32:51.495Z,101922.03
2023-02-11T10:34:03.560Z,101918.50
2023-02-11T10:35:15.540Z,101917.63
2023-02-11T10:36:19.988Z,101913.19
2023-02-11T10:37:22.285Z,101912.31
2023-02-11T10:38:27.921Z,101921.16
2023-02-11T10:39:31.869Z,101911.41
2023-02-11T10:40:34.397Z,101906.94
2023-02-11T10:41:45.771Z,101899.81
2023-02-11T10:42:53.699Z,101899.78
2023-02-11T10:44:00.594Z,101884.69
2023-02-11T10:45:07.464Z,101889.16
2023-02-11T10:46:17.683Z,101889.19
2023-02-11T10:47:22.620Z,101905.13
2023-02-11T10:48:45.287Z,101883.00
2023-02-11T10:49:48.175Z,101886.53
2023-02-11T10:50:50.813Z,101895.38
2023-02-11T10:52:28.530Z,101881.22
2023-02-11T10:53:30.795Z,101894.56
2023-02-11T10:54:33.086Z,101898.97
2023-02-11T10:55:36.481Z,101891.00
2023-02-11T10:56:52.208Z,101882.97
2023-02-11T10:57:58.865Z,101889.22
2023-02-11T10:59:10.130Z,101897.19
2023-02-11T11:00:18.366Z,101902.56
2023-02-11T11:01:24.633Z,101891.91
2023-02-11T11:02:34.354Z,101892.81
2023-02-11T11:03:46.916Z,101883.94
2023-02-11T11:04:49.503Z,101891.03
2023-02-11T11:06:00.990Z,101891.06
2023-02-11T11:07:21.467Z,101883.94
2023-02-11T11:08:47.751Z,101882.13
2023-02-11T11:10:04.402Z,101871.47
2023-02-11T11:11:09.968Z,101890.09
2023-02-11T11:12:30.936Z,101885.69
2023-02-11T11:13:34.561Z,101897.22
2023-02-11T11:14:36.762Z,101891.88
2023-02-11T11:15:39.061Z,101900.78
2023-02-11T11:16:54.177Z,101896.31
2023-02-11T11:18:22.594Z,101892.75
2023-02-11T11:19:25.964Z,101898.06
2023-02-11T11:20:35.533Z,101887.44
2023-02-11T11:21:47.324Z,101890.97
2023-02-11T11:22:52.695Z,101906.09
2023-02-11T11:23:56.556Z,101906.03
2023-02-11T11:25:01.610Z,101914.94
2023-02-11T11:26:05.999Z,101915.84
2023-02-11T11:27:18.822Z,101920.25
2023-02-11T11:28:26.891Z,101904.25
2023-02-11T11:29:37.481Z,101898.09
2023-02-11T11:30:42.993Z,101903.47
2023-02-11T11:32:01.347Z,101903.44
2023-02-11T11:33:04.011Z,101897.22
2023-02-11T11:34:22.125Z,101890.13
2023-02-11T11:35:30.370Z,101899.00
2023-02-11T11:36:39.782Z,101890.16
2023-02-11T11:37:42.134Z,101889.31
2023-02-11T11:38:57.978Z,101879.53
2023-02-11T11:40:10.086Z,101894.59
2023-02-11T11:41:20.003Z,101888.34
2023-02-11T11:42:30.241Z,101892.75
2023-02-11T11:43:32.782Z,101873.34
2023-02-11T11:44:39.974Z,101887.50
2023-02-11T11:45:56.714Z,101883.94
2023-02-11T11:47:11.395Z,101883.94
2023-02-11T11:48:25.370Z,101881.25
2023-02-11T11:49:35.504Z,101883.03
2023-02-11T11:50:48.653Z,101889.22
2023-02-11T11:52:14.135Z,101880.34
2023-02-11T11:53:37.393Z,101880.31
2023-02-11T11:54:43.625Z,101880.31
2023-02-11T11:55:57.896Z,101884.81
2023-02-11T11:57:11.239Z,101869.69
2023-02-11T11:58:17.353Z,101869.66
2023-02-11T11:59:20.444Z,101871.44
2023-02-11T12:00:36.574Z,101874.91
2023-02-11T12:02:08.521Z,101868.69
2023-02-11T12:03:32.493Z,101874.00
2023-02-11T12:04:50.905Z,101871.31
2023-02-11T12:06:04.462Z,101880.28
2023-02-11T12:07:40.554Z,101867.03
2023-02-11T12:09:08.774Z,101873.25
2023-02-11T12:10:31.049Z,101875.00
2023-02-11T12:11:34.126Z,101873.25
2023-02-11T12:12:54.627Z,101877.75
2023-02-11T12:14:30.568Z,101877.72
2023-02-11T12:15:50.961Z,101875.06
2023-02-11T12:17:37.049Z,101879.53
2023-02-11T12:19:16.813Z,101883.94
2023-02-11T12:20:55.691Z,101883.03
2023-02-11T12:22:24.426Z,101886.56
2023-02-11T12:23:58.366Z,101879.41
2023-02-11T12:25:07.490Z,101877.69
2023-02-11T12:26:23.480Z,101868.78
2023-02-11T12:27:45.324Z,101871.47
2023-02-11T12:29:25.735Z,101867.88
2023-02-11T12:30:58.540Z,101880.31
2023-02-11T12:32:16.125Z,101889.22
2023-02-11T12:33:26.005Z,101884.78
2023-02-11T12:34:50.132Z,101874.16
2023-02-11T12:36:01.512Z,101875.03
2023-02-11T12:37:22.193Z,101893.69
2023-02-11T12:38:39.071Z,101894.56
2023-02-11T12:39:51.908Z,101891.00
2023-02-11T12:41:19.001Z,101894.56
2023-02-11T12:43:02.559Z,101897.22
2023-02-11T12:44:07.539Z,101882.06
2023-02-11T12:45:12.764Z,101893.63
2023-02-11T12:46:35.011Z,101884.75
2023-02-11T12:47:55.630Z,101883.81
2023-02-11T12:49:03.728Z,101877.63
2023-02-11T12:50:30.232Z,101881.13